createdAt,value
2023-04-10T00:03:41.604Z,17.10
2023-04-10T00:08:47.494Z,17.80
2023-04-10T00:13:51.153Z,17.40
2023-04-10T00:19:00.731Z,16.30
2023-04-10T00:24:04.966Z,14.50
2023-04-10T00:29:08.408Z,10.90
2023-04-10T00:34:12.154Z,14.20
2023-04-10T00:39:25.886Z,17.60
2023-04-10T00:44:29.292Z,14.30
2023-04-10T00:49:56.054Z,16.30
2023-04-10T00:54:59.582Z,17.20
2023-04-10T01:00:52.602Z,18.30
2023-04-10T01:06:08.199Z,17.90
2023-04-10T01:11:25.422Z,18.60
2023-04-10T01:16:46.617Z,19.70
2023-04-10T01:21:52.816Z,16.30
2023-04-10T01:27:25.369Z,17.60
2023-04-10T01:32:34.810Z,19.40
2023-04-10T01:37:44.463Z,19.20
2023-04-10T01:43:05.514Z,18.70
2023-04-10T01:48:22.480Z,19.00
2023-04-10T01:53:31.625Z,18.10
2023-04-10T01:58:36.863Z,17.60
2023-04-10T02:03:41.372Z,17.60
2023-04-10T02:09:22.015Z,18.60
2023-04-10T02:14:31.821Z,18.80
2023-04-10T02:19:37.543Z,17.80
2023-04-10T02:24:41.170Z,16.80
2023-04-10T02:29:44.726Z,18.00
2023-04-10T02:35:08.836Z,17.40
2023-04-10T02:40:13.788Z,16.90
2023-04-10T02:45:27.276Z,18.30
2023-04-10T02:50:32.416Z,17.60
2023-04-10T02:55:36.252Z,16.30
2023-04-10T03:00:39.755Z,16.40
2023-04-10T03:05:51.633Z,17.20
2023-04-10T03:10:59.103Z,16.20
2023-04-10T03:16:03.327Z,16.20
2023-04-10T03:21:07.663Z,15.90
2023-04-10T03:26:24.236Z,14.80
2023-04-10T03:31:28.282Z,14.80
2023-04-10T03:36:33.491Z,13.70
2023-04-10T03:41:39.231Z,13.70
2023-04-10T03:46:53.839Z,15.80
2023-04-10T03:51:57.553Z,16.30
2023-04-10T03:57:01.699Z,16.40
2023-04-10T04:02:07.713Z,17.70
2023-04-10T04:07:13.608Z,19.40
2023-04-10T04:12:31.383Z,37.00
2023-04-10T04:17:42.506Z,26.80
2023-04-10T04:23:06.213Z,20.60
2023-04-10T04:28:39.221Z,18.90
2023-04-10T04:34:23.205Z,19.90
2023-04-10T04:45:24.974Z,17.10
2023-04-10T04:50:43.797Z,17.30
2023-04-10T04:56:10.092Z,17.80
2023-04-10T05:01:26.610Z,19.50
2023-04-10T05:06:50.617Z,19.70
2023-04-10T05:12:45.711Z,20.50
2023-04-10T05:18:14.284Z,19.00
2023-04-10T05:23:37.100Z,18.10
2023-04-10T05:29:06.541Z,18.90
2023-04-10T05:34:30.200Z,19.40
2023-04-10T05:39:52.514Z,19.90
2023-04-10T05:45:28.980Z,19.20
2023-04-10T05:50:52.922Z,17.50
2023-04-10T05:56:22.283Z,15.50
2023-04-10T06:01:42.293Z,14.20
2023-04-10T06:06:48.901Z,15.20
2023-04-10T06:11:54.951Z,14.90
2023-04-10T06:17:03.487Z,14.10
2023-04-10T06:22:07.006Z,14.40
2023-04-10T06:27:10.392Z,13.90
2023-04-10T06:32:16.541Z,13.90
2023-04-10T06:37:20.135Z,12.80
2023-04-10T06:42:23.470Z,11.60
2023-04-10T06:47:33.279Z,11.40
2023-04-10T06:52:36.729Z,10.30
2023-04-10T06:57:40.551Z,8.80
2023-04-10T07:02:43.742Z,9.60
2023-04-10T07:07:47.735Z,8.50
2023-04-10T07:12:51.233Z,7.50
2023-04-10T07:17:56.360Z,7.30
2023-04-10T07:22:59.752Z,7.70
2023-04-10T07:28:03.153Z,7.60
2023-04-10T07:33:06.979Z,7.20
2023-04-10T07:38:12.005Z,7.00
2023-04-10T07:43:15.671Z,7.60
2023-04-10T07:48:19.038Z,7.10
2023-04-10T07:53:22.422Z,7.30
2023-04-10T07:58:25.950Z,7.90
2023-04-10T08:03:32.075Z,6.70
2023-04-10T08:08:37.650Z,6.30
2023-04-10T08:13:41.062Z,8.10
2023-04-10T08:18:44.273Z,7.70
2023-04-10T08:23:47.605Z,8.60
2023-04-10T08:29:01.583Z,8.00
2023-04-10T08:34:05.062Z,7.90
2023-04-10T08:39:08.573Z,6.80
2023-04-10T08:44:12.252Z,7.80
2023-04-10T08:49:40.853Z,7.70
2023-04-10T08:54:48.538Z,7.30
2023-04-10T08:59:51.954Z,7.80
2023-04-10T09:04:59.154Z,7.90
2023-04-10T09:10:02.465Z,8.80
2023-04-10T09:15:06.514Z,7.80
2023-04-10T09:20:22.520Z,8.40
2023-04-10T09:25:35.035Z,8.50
2023-04-10T09:30:42.608Z,7.70
2023-04-10T09:35:46.198Z,7.30
2023-04-10T09:40:50.455Z,6.80
2023-04-10T09:45:56.662Z,7.10
2023-04-10T09:51:00.132Z,7.80
2023-04-10T09:56:22.325Z,6.50
2023-04-10T10:01:30.182Z,7.10
2023-04-10T10:06:34.855Z,6.70
2023-04-10T10:11:38.327Z,6.10
2023-04-10T10:16:49.684Z,5.60
2023-04-10T10:21:55.588Z,5.90
2023-04-10T10:27:01.911Z,5.90
2023-04-10T10:32:08.512Z,4.80
2023-04-10T10:37:12.536Z,4.70
2023-04-10T10:42:43.478Z,4.70
2023-04-10T10:47:53.789Z,4.50
2023-04-10T10:52:57.764Z,4.50
2023-04-10T10:58:05.529Z,4.60
2023-04-10T11:03:08.974Z,3.90
2023-04-10T11:08:12.368Z,3.90
2023-04-10T11:13:18.009Z,3.50
2023-04-10T11:18:51.203Z,3.90
2023-04-10T11:23:59.624Z,3.90
2023-04-10T11:29:04.626Z,4.20
2023-04-10T11:34:10.708Z,4.50
2023-04-10T11:39:20.520Z,4.60
2023-04-10T11:44:30.578Z,4.00
2023-04-10T11:49:42.961Z,3.90
2023-04-10T11:54:49.380Z,3.90
2023-04-10T11:59:52.714Z,4.10
2023-04-10T12:05:07.911Z,3.70
2023-04-10T12:10:21.618Z,3.90
2023-04-10T12:15:29.431Z,3.80
2023-04-10T12:20:44.961Z,3.50
2023-04-10T12:25:48.418Z,3.60
2023-04-10T12:30:53.562Z,3.50
2023-04-10T12:35:57.049Z,3.40
2023-04-10T12:41:01.577Z,4.10
2023-04-10T12:46:06.670Z,3.80
2023-04-10T12:51:12.477Z,4.10
2023-04-10T12:56:25.928Z,3.70
2023-04-10T13:01:29.368Z,4.00
2023-04-10T13:06:32.968Z,3.70
2023-04-10T13:11:36.497Z,3.50
2023-04-10T13:17:01.003Z,3.30
2023-04-10T13:22:12.675Z,3.50
2023-04-10T13:27:16.223Z,3.30
2023-04-10T13:32:19.480Z,3.30
2023-04-10T13:37:22.856Z,3.40
2023-04-10T13:42:26.687Z,3.40
2023-04-10T13:47:30.139Z,3.70
2023-04-10T13:52:33.445Z,3.30
2023-04-10T13:57:36.895Z,3.60
2023-04-10T14:02:40.796Z,3.60
2023-04-10T14:07:44.288Z,3.40
2023-04-10T14:12:47.484Z,3.80
2023-04-10T14:17:50.818Z,3.90
2023-04-10T14:22:54.179Z,3.50
2023-04-10T14:27:57.544Z,3.80
2023-04-10T14:33:01.079Z,3.60
2023-04-10T14:38:04.634Z,3.90
2023-04-10T14:43:08.226Z,4.20
2023-04-10T14:48:12.953Z,3.50
2023-04-10T14:53:17.001Z,3.30
2023-04-10T14:58:20.612Z,3.20
2023-04-10T15:03:25.333Z,4.10
2023-04-10T15:08:29.019Z,6.90
2023-04-10T15:13:32.960Z,3.70
2023-04-10T15:18:36.168Z,3.70
2023-04-10T15:23:39.814Z,3.40
2023-04-10T15:28:43.646Z,4.10
2023-04-10T15:33:47.059Z,4.20
2023-04-10T15:38:50.505Z,4.20
2023-04-10T15:43:54.352Z,4.30
2023-04-10T15:48:59.183Z,3.90
2023-04-10T15:54:05.397Z,3.70
2023-04-10T15:59:09.551Z,3.40
2023-04-10T16:04:13.230Z,3.80
2023-04-10T16:14:24.843Z,3.30
2023-04-10T16:19:32.199Z,3.40
2023-04-10T16:24:35.731Z,3.50
2023-04-10T16:29:39.150Z,3.20
2023-04-10T16:34:42.739Z,3.30
2023-04-10T16:39:46.204Z,3.20
2023-04-10T16:44:49.696Z,3.40
2023-04-10T16:49:52.935Z,3.30
2023-04-10T16:54:56.760Z,3.90
2023-04-10T17:00:01.104Z,4.00
2023-04-10T17:05:05.074Z,3.90
2023-04-10T17:10:09.277Z,4.50
2023-04-10T17:15:12.850Z,4.30
2023-04-10T17:20:17.007Z,5.30
2023-04-10T17:25:20.773Z,5.80
2023-04-10T17:30:27.164Z,6.00
2023-04-10T17:35:44.504Z,8.00
2023-04-10T17:40:48.029Z,7.70
2023-04-10T17:45:54.958Z,8.80
2023-04-10T17:50:59.057Z,8.80
2023-04-10T17:56:03.540Z,9.30
2023-04-10T18:01:09.493Z,8.60
2023-04-10T18:06:33.321Z,8.30
2023-04-10T18:11:37.280Z,7.80
2023-04-10T18:16:48.954Z,8.60
2023-04-10T18:21:52.723Z,8.30
2023-04-10T18:26:56.683Z,7.30
2023-04-10T18:32:00.276Z,9.20
2023-04-10T18:37:03.773Z,10.30
2023-04-10T18:42:28.049Z,8.20
2023-04-10T18:47:34.300Z,7.50
2023-04-10T18:52:38.080Z,9.20
2023-04-10T18:57:41.779Z,7.90
2023-04-10T19:02:48.945Z,8.00
2023-04-10T19:08:03.016Z,7.60
2023-04-10T19:13:12.087Z,7.90
2023-04-10T19:18:16.561Z,7.80
2023-04-10T19:23:21.587Z,9.00
2023-04-10T19:28:26.591Z,11.20
2023-04-10T19:33:31.490Z,11.90
2023-04-10T19:38:36.543Z,11.90
2023-04-10T19:43:40.571Z,11.20
2023-04-10T19:48:44.528Z,10.30
2023-04-10T19:53:48.007Z,11.30
2023-04-10T19:58:57.954Z,11.50
2023-04-10T20:04:02.037Z,11.50
2023-04-10T20:09:05.666Z,12.70
2023-04-10T20:14:10.762Z,12.70
2023-04-10T20:19:26.982Z,11.50
2023-04-10T20:24:30.470Z,13.60
2023-04-10T20:29:33.903Z,14.30
2023-04-10T20:34:37.703Z,15.30
2023-04-10T20:39:41.180Z,14.10
2023-04-10T20:44:46.905Z,15.70
2023-04-10T20:49:50.837Z,14.60
2023-04-10T20:54:54.267Z,15.70
2023-04-10T20:59:57.659Z,16.60
2023-04-10T21:05:12.393Z,20.50
2023-04-10T21:10:23.653Z,17.30
2023-04-10T21:15:29.930Z,19.90
2023-04-10T21:20:36.166Z,21.00
2023-04-10T21:25:39.695Z,20.50
2023-04-10T21:30:45.494Z,19.10
2023-04-10T21:35:51.912Z,19.80
2023-04-10T21:41:26.020Z,20.30
2023-04-10T21:46:31.124Z,21.20
2023-04-10T21:51:55.140Z,25.30
2023-04-10T21:57:01.939Z,25.00
2023-04-10T22:02:10.789Z,21.90
2023-04-10T22:07:14.426Z,26.00
2023-04-10T22:12:34.417Z,26.60
2023-04-10T22:17:58.364Z,25.60
2023-04-10T22:23:22.468Z,28.80
2023-04-10T22:28:26.022Z,23.80
2023-04-10T22:33:32.615Z,22.40
2023-04-10T22:38:35.868Z,22.50
2023-04-10T22:43:39.146Z,23.40
2023-04-10T22:48:55.397Z,23.00
2023-04-10T22:54:01.402Z,23.80
2023-04-10T22:59:05.320Z,23.30
2023-04-10T23:04:08.659Z,23.40
2023-04-10T23:09:12.103Z,23.70
2023-04-10T23:14:15.619Z,24.50
2023-04-10T23:19:19.274Z,23.20
2023-04-10T23:24:45.822Z,21.40
2023-04-10T23:29:50.238Z,19.60
2023-04-10T23:34:53.594Z,18.50
2023-04-10T23:39:57.120Z,19.00
2023-04-10T23:45:06.281Z,19.30
2023-04-10T23:50:10.462Z,18.20
2023-04-10T23:55:23.885Z,18.90
